Check out our new BloomSky Weather System.

Active alerts


No alerts


Thunder radar  blitzortung!


Rain radar more information rain snow radar


Visit our other weather sites:

Template documentation
and downloads

And another site



Weather Underground History page Text

Daily Summary for October 19, 2017 Units:  English    Metric   Both
« Previous Day
Next Day »
Daily Weekly Monthly Yearly Custom
  High: Low: Average:
Temperature: TemperatureF °F 61.3 °F 72.4 °F
Dew Point: DewpointF °F 60.6 °F 64 °F
Humidity: Humidity % 53 % 77 %
Wind Speed: WindSpeedMPH mph 0.0 mph 1.5 mph
Wind Gust: WindSpeedGustMPH mph - -
Wind:- - ESE
Pressure: PressureIn in 30.04 in -
Precipitation: 0.00 in    
Historical Graphs
 
 
Tabular Data for October 19, 2017
Time Temperature Dew Point Pressure Wind Wind Speed Wind Gust Humidity Rainfall Rate (Hourly)
TemperatureF °F DewpointF °F PressureIn in Calm     Humidity % HourlyPrecipIn in
00:00 66.6 °F 64.2 °F 30.11 in Calm   1.0 mph 92 % 0.00 in
00:05 66.2 °F 63.9 °F 30.11 in Calm     92 % 0.00 in
00:10 66.0 °F 63.9 °F 30.11 in Calm     93 % 0.00 in
00:15 65.8 °F 63.7 °F 30.11 in Calm     93 % 0.00 in
00:20 65.7 °F 63.5 °F 30.11 in Calm     93 % 0.00 in
00:25 65.5 °F 63.7 °F 30.11 in Calm     94 % 0.00 in
00:30 65.1 °F 63.3 °F 30.11 in Calm     94 % 0.00 in
00:35 64.9 °F 63.1 °F 30.11 in Calm     94 % 0.00 in
00:40 64.8 °F 63.0 °F 30.11 in Calm     94 % 0.00 in
00:45 64.4 °F 63.0 °F 30.11 in Calm   1.0 mph 95 % 0.00 in
00:50 64.0 °F 62.2 °F 30.11 in Calm   1.0 mph 94 % 0.00 in
00:55 63.7 °F 62.2 °F 30.11 in Calm   1.0 mph 95 % 0.00 in
01:00 63.3 °F 61.9 °F 30.11 in Calm     95 % 0.00 in
01:05 63.3 °F 62.2 °F 30.11 in Calm     96 % 0.00 in
01:10 63.7 °F 62.6 °F 30.11 in Calm     96 % 0.00 in
01:15 63.7 °F 62.6 °F 30.11 in Calm     96 % 0.00 in
01:20 63.9 °F 62.8 °F 30.11 in Calm     96 % 0.00 in
01:25 63.9 °F 63.0 °F 30.10 in Calm   1.0 mph 97 % 0.00 in
01:30 64.0 °F 63.1 °F 30.10 in Calm   1.0 mph 97 % 0.00 in
01:35 63.9 °F 63.0 °F 30.10 in Calm   1.0 mph 97 % 0.00 in
01:40 63.9 °F 63.0 °F 30.10 in Calm   1.0 mph 97 % 0.00 in
01:45 63.7 °F 62.6 °F 30.10 in Calm     96 % 0.00 in
01:50 63.5 °F 62.6 °F 30.10 in Calm     97 % 0.00 in
01:55 63.3 °F 62.4 °F 30.10 in Calm     97 % 0.00 in
02:00 63.3 °F 62.4 °F 30.10 in Calm     97 % 0.00 in
02:05 63.3 °F 62.4 °F 30.10 in Calm     97 % 0.00 in
02:10 63.0 °F 62.1 °F 30.10 in Calm     97 % 0.00 in
02:16 63.0 °F 62.1 °F 30.10 in Calm     97 % 0.00 in
02:21 63.0 °F 62.1 °F 30.10 in SE 1.0 mph   97 % 0.00 in
02:26 63.0 °F 62.1 °F 30.10 in Calm   1.0 mph 97 % 0.00 in
02:31 62.8 °F 61.9 °F 30.10 in Calm   1.0 mph 97 % 0.00 in
02:36 62.4 °F 61.5 °F 30.10 in Calm   1.0 mph 97 % 0.00 in
02:41 62.4 °F 61.5 °F 30.10 in Calm     97 % 0.00 in
02:46 62.4 °F 61.5 °F 30.10 in Calm     97 % 0.00 in
02:51 62.1 °F 61.2 °F 30.10 in Calm     97 % 0.00 in
02:56 61.9 °F 61.0 °F 30.10 in Calm     97 % 0.00 in
03:01 61.7 °F 60.8 °F 30.10 in Calm     97 % 0.00 in
03:06 61.5 °F 60.6 °F 30.10 in Calm     97 % 0.00 in
03:11 61.5 °F 61.0 °F 30.10 in Calm     98 % 0.00 in
03:16 61.5 °F 61.0 °F 30.09 in Calm     98 % 0.00 in
03:21 61.5 °F 61.0 °F 30.10 in Calm     98 % 0.00 in
03:26 61.5 °F 61.0 °F 30.09 in Calm     98 % 0.00 in
03:31 61.5 °F 61.0 °F 30.09 in Calm   1.0 mph 98 % 0.00 in
03:36 61.5 °F 61.0 °F 30.09 in Calm   1.0 mph 98 % 0.00 in
03:46 61.3 °F 60.8 °F 30.09 in Calm   1.0 mph 98 % 0.00 in
03:51 61.5 °F 61.0 °F 30.09 in Calm   1.0 mph 98 % 0.00 in
03:56 61.3 °F 60.8 °F 30.09 in Calm     98 % 0.00 in
04:01 61.3 °F 60.8 °F 30.09 in Calm   1.0 mph 98 % 0.00 in
04:06 61.5 °F 61.0 °F 30.09 in Calm   1.0 mph 98 % 0.00 in
04:11 61.5 °F 61.0 °F 30.09 in Calm   1.0 mph 98 % 0.00 in
04:16 61.3 °F 60.8 °F 30.09 in Calm     98 % 0.00 in
04:21 61.3 °F 60.8 °F 30.09 in Calm     98 % 0.00 in
04:26 61.5 °F 61.0 °F 30.09 in Calm     98 % 0.00 in
04:31 61.5 °F 61.0 °F 30.09 in Calm     98 % 0.00 in
04:36 61.7 °F 61.2 °F 30.09 in Calm     98 % 0.00 in
04:41 61.9 °F 61.3 °F 30.09 in Calm     98 % 0.00 in
04:46 62.1 °F 61.5 °F 30.09 in Calm     98 % 0.00 in
04:51 62.1 °F 61.5 °F 30.09 in Calm     98 % 0.00 in
04:56 62.1 °F 61.5 °F 30.09 in Calm     98 % 0.00 in
05:01 62.2 °F 61.7 °F 30.09 in Calm     98 % 0.00 in
05:06 62.2 °F 61.7 °F 30.09 in Calm     98 % 0.00 in
05:11 62.4 °F 61.9 °F 30.09 in Calm   1.0 mph 98 % 0.00 in
05:16 62.8 °F 62.2 °F 30.09 in Calm   1.0 mph 98 % 0.00 in
05:21 62.8 °F 62.2 °F 30.10 in Calm   1.0 mph 98 % 0.00 in
05:26 63.0 °F 62.4 °F 30.10 in Calm   1.0 mph 98 % 0.00 in
05:31 63.3 °F 62.8 °F 30.10 in North 1.0 mph 1.0 mph 98 % 0.00 in
05:36 63.5 °F 63.0 °F 30.10 in Calm   2.0 mph 98 % 0.00 in
05:41 63.7 °F 62.8 °F 30.10 in Calm   2.0 mph 97 % 0.00 in
05:46 63.7 °F 62.8 °F 30.10 in Calm   2.0 mph 97 % 0.00 in
05:51 63.7 °F 62.8 °F 30.10 in Calm   1.0 mph 97 % 0.00 in
05:56 63.9 °F 63.0 °F 30.11 in Calm   1.0 mph 97 % 0.00 in
06:01 64.0 °F 63.1 °F 30.11 in Calm   1.0 mph 97 % 0.00 in
06:06 64.0 °F 63.1 °F 30.11 in Calm   1.0 mph 97 % 0.00 in
06:11 64.2 °F 63.1 °F 30.11 in Calm   1.0 mph 96 % 0.00 in
06:16 64.2 °F 63.1 °F 30.11 in NW 1.0 mph 1.0 mph 96 % 0.00 in
06:21 64.2 °F 63.1 °F 30.11 in Calm   2.0 mph 96 % 0.00 in
06:26 64.4 °F 63.3 °F 30.11 in Calm   2.0 mph 96 % 0.00 in
06:31 64.2 °F 62.8 °F 30.11 in Calm   2.0 mph 95 % 0.00 in
06:36 64.2 °F 62.8 °F 30.11 in Calm   1.0 mph 95 % 0.00 in
06:41 64.2 °F 62.8 °F 30.11 in Calm   1.0 mph 95 % 0.00 in
06:46 64.0 °F 62.6 °F 30.11 in WNW 1.0 mph 1.0 mph 95 % 0.00 in
06:51 64.0 °F 62.6 °F 30.10 in Calm   1.0 mph 95 % 0.00 in
06:57 64.0 °F 62.6 °F 30.11 in Calm   1.0 mph 95 % 0.00 in
07:02 63.9 °F 62.4 °F 30.11 in Calm   1.0 mph 95 % 0.00 in
07:07 63.9 °F 62.4 °F 30.11 in Calm   1.0 mph 95 % 0.00 in
07:12 63.9 °F 62.4 °F 30.11 in Calm   1.0 mph 95 % 0.00 in
07:17 63.7 °F 62.6 °F 30.11 in Calm   1.0 mph 96 % 0.00 in
07:22 63.7 °F 62.6 °F 30.11 in Calm   1.0 mph 96 % 0.00 in
07:27 63.7 °F 62.6 °F 30.11 in Calm   1.0 mph 96 % 0.00 in
07:32 63.5 °F 62.4 °F 30.11 in Calm   1.0 mph 96 % 0.00 in
07:37 63.3 °F 62.2 °F 30.11 in Calm   1.0 mph 96 % 0.00 in
07:42 63.3 °F 62.2 °F 30.11 in NNW 1.0 mph 1.0 mph 96 % 0.00 in
07:47 63.3 °F 62.2 °F 30.11 in Calm   1.0 mph 96 % 0.00 in
07:52 63.1 °F 62.1 °F 30.11 in Calm   1.0 mph 96 % 0.00 in
07:57 63.1 °F 62.1 °F 30.11 in Calm   1.0 mph 96 % 0.00 in
08:02 63.3 °F 62.2 °F 30.11 in Calm   1.0 mph 96 % 0.00 in
08:07 63.7 °F 62.6 °F 30.12 in Calm   2.0 mph 96 % 0.00 in
08:12 64.0 °F 63.0 °F 30.12 in Calm   2.0 mph 96 % 0.00 in
08:17 64.2 °F 63.1 °F 30.11 in Calm   2.0 mph 96 % 0.00 in
08:22 64.8 °F 63.7 °F 30.12 in NNE 1.0 mph 2.0 mph 96 % 0.00 in
08:27 65.5 °F 64.2 °F 30.12 in ENE 2.0 mph 2.0 mph 96 % 0.00 in
08:32 66.0 °F 64.6 °F 30.12 in Calm   4.0 mph 95 % 0.00 in
08:37 66.4 °F 64.6 °F 30.12 in NNW 1.0 mph 4.0 mph 94 % 0.00 in
08:42 66.7 °F 64.6 °F 30.12 in Calm   4.0 mph 93 % 0.00 in
08:47 66.9 °F 64.8 °F 30.12 in Calm   3.0 mph 93 % 0.00 in
08:52 67.5 °F 65.3 °F 30.13 in Calm   3.0 mph 93 % 0.00 in
08:58 68.2 °F 65.8 °F 30.13 in Calm   3.0 mph 92 % 0.00 in
09:03 68.9 °F 65.8 °F 30.13 in Calm   2.0 mph 90 % 0.00 in
09:08 69.4 °F 66.4 °F 30.13 in NE 2.0 mph 4.0 mph 90 % 0.00 in
09:13 70.2 °F 66.7 °F 30.13 in NE 2.0 mph 4.0 mph 89 % 0.00 in
09:18 70.3 °F 66.6 °F 30.13 in Calm   6.0 mph 88 % 0.00 in
09:23 71.1 °F 67.3 °F 30.14 in Calm   6.0 mph 88 % 0.00 in
09:28 71.6 °F 67.1 °F 30.14 in ENE 1.0 mph 6.0 mph 86 % 0.00 in
09:33 71.8 °F 67.3 °F 30.14 in Calm   5.0 mph 86 % 0.00 in
09:38 72.3 °F 67.8 °F 30.14 in ENE 3.0 mph 5.0 mph 86 % 0.00 in
09:43 72.9 °F 67.5 °F 30.14 in ESE 3.0 mph 5.0 mph 83 % 0.00 in
09:48 73.4 °F 68.0 °F 30.14 in ENE 2.0 mph 5.0 mph 83 % 0.00 in
09:53 73.8 °F 68.0 °F 30.14 in NE 1.0 mph 5.0 mph 82 % 0.00 in
09:58 74.5 °F 68.5 °F 30.14 in East 1.0 mph 4.0 mph 82 % 0.00 in
10:03 74.8 °F 67.8 °F 30.14 in SE 1.0 mph 4.0 mph 79 % 0.00 in
10:08 75.0 °F 68.0 °F 30.14 in North 2.0 mph 5.0 mph 79 % 0.00 in
10:13 75.0 °F 68.0 °F 30.14 in NNE 2.0 mph 5.0 mph 79 % 0.00 in
10:18 75.6 °F 68.5 °F 30.14 in ESE 2.0 mph 6.0 mph 79 % 0.00 in
10:23 76.1 °F 68.4 °F 30.14 in North 2.0 mph 6.0 mph 77 % 0.00 in
10:28 76.3 °F 68.5 °F 30.14 in ESE 1.0 mph 6.0 mph 77 % 0.00 in
10:33 77.2 °F 68.7 °F 30.14 in South 1.0 mph 6.0 mph 75 % 0.00 in
10:38 77.9 °F 68.2 °F 30.14 in ENE 4.0 mph 6.0 mph 72 % 0.00 in
10:48 79.3 °F 68.4 °F 30.14 in ESE 6.0 mph 6.0 mph 69 % 0.00 in
10:53 79.3 °F 68.4 °F 30.14 in West 1.0 mph 7.0 mph 69 % 0.00 in
10:58 79.5 °F 67.6 °F 30.14 in ESE 2.0 mph 7.0 mph 67 % 0.00 in
11:03 79.5 °F 67.6 °F 30.13 in ESE 2.0 mph 7.0 mph 67 % 0.00 in
11:08 79.7 °F 67.8 °F 30.13 in North 1.0 mph 8.0 mph 67 % 0.00 in
11:13 80.1 °F 67.6 °F 30.13 in ESE 2.0 mph 8.0 mph 66 % 0.00 in
11:18 79.9 °F 67.1 °F 30.13 in ESE 5.0 mph 11.0 mph 65 % 0.00 in
11:24 80.1 °F 67.6 °F 30.14 in SE 1.0 mph 11.0 mph 66 % 0.00 in
11:29 80.1 °F 66.7 °F 30.14 in ESE 4.0 mph 11.0 mph 64 % 0.00 in
11:34 80.1 °F 66.7 °F 30.13 in SSE 3.0 mph 9.0 mph 64 % 0.00 in
11:39 79.5 °F 65.8 °F 30.13 in ENE 3.0 mph 9.0 mph 63 % 0.00 in
11:44 79.9 °F 66.6 °F 30.13 in SE 4.0 mph 9.0 mph 64 % 0.00 in
11:49 80.6 °F 66.4 °F 30.13 in NE 2.0 mph 9.0 mph 62 % 0.00 in
11:54 80.8 °F 66.6 °F 30.13 in ENE 9.0 mph 9.0 mph 62 % 0.00 in
11:59 80.4 °F 67.1 °F 30.13 in SSE 3.0 mph 10.0 mph 64 % 0.00 in
12:04 80.8 °F 66.6 °F 30.12 in ESE 3.0 mph 10.0 mph 62 % 0.00 in
12:09 81.0 °F 66.7 °F 30.12 in SE 5.0 mph 10.0 mph 62 % 0.00 in
12:14 81.0 °F 66.7 °F 30.12 in NNW 4.0 mph 11.0 mph 62 % 0.00 in
12:19 81.1 °F 66.9 °F 30.12 in SE 3.0 mph 11.0 mph 62 % 0.00 in
12:24 81.3 °F 67.1 °F 30.12 in ENE 6.0 mph 11.0 mph 62 % 0.00 in
12:29 81.3 °F 67.5 °F 30.12 in ESE 5.0 mph 9.0 mph 63 % 0.00 in
12:34 81.9 °F 68.0 °F 30.12 in SE 5.0 mph 9.0 mph 63 % 0.00 in
12:39 82.6 °F 68.2 °F 30.12 in NE 5.0 mph 9.0 mph 62 % 0.00 in
12:44 82.8 °F 68.0 °F 30.12 in ENE 3.0 mph 8.0 mph 61 % 0.00 in
12:49 82.6 °F 67.8 °F 30.11 in NNE 5.0 mph 8.0 mph 61 % 0.00 in
12:54 82.0 °F 67.3 °F 30.11 in East 1.0 mph 8.0 mph 61 % 0.00 in
12:59 82.4 °F 67.6 °F 30.11 in ENE 3.0 mph 9.0 mph 61 % 0.00 in
13:04 82.6 °F 67.3 °F 30.10 in SE 1.0 mph 9.0 mph 60 % 0.00 in
13:09 82.4 °F 67.6 °F 30.10 in Calm   10.0 mph 61 % 0.00 in
13:14 82.4 °F 68.0 °F 30.10 in ENE 6.0 mph 10.0 mph 62 % 0.00 in
13:19 82.9 °F 68.2 °F 30.09 in NNE 2.0 mph 10.0 mph 61 % 0.00 in
13:24 83.7 °F 67.3 °F 30.09 in East 4.0 mph 9.0 mph 58 % 0.00 in
13:29 83.7 °F 68.4 °F 30.09 in East 1.0 mph 9.0 mph 60 % 0.00 in
13:34 83.8 °F 66.9 °F 30.09 in ESE 5.0 mph 9.0 mph 57 % 0.00 in
13:39 83.8 °F 66.4 °F 30.08 in East 6.0 mph 9.0 mph 56 % 0.00 in
13:49 84.0 °F 67.1 °F 30.08 in SE 3.0 mph 9.0 mph 57 % 0.00 in
13:54 84.6 °F 67.6 °F 30.08 in SSE 2.0 mph 9.0 mph 57 % 0.00 in
13:59 84.4 °F 66.9 °F 30.08 in ESE 2.0 mph 9.0 mph 56 % 0.00 in
14:04 84.0 °F 67.1 °F 30.07 in ESE 4.0 mph 9.0 mph 57 % 0.00 in
14:09 83.7 °F 67.8 °F 30.07 in ENE 3.0 mph 9.0 mph 59 % 0.00 in
14:14 84.2 °F 66.7 °F 30.07 in NNE 7.0 mph 8.0 mph 56 % 0.00 in
14:19 84.0 °F 66.2 °F 30.07 in SSE 1.0 mph 10.0 mph 55 % 0.00 in
14:24 84.7 °F 67.3 °F 30.07 in SE 3.0 mph 10.0 mph 56 % 0.00 in
14:29 84.7 °F 66.7 °F 30.06 in East 4.0 mph 10.0 mph 55 % 0.00 in
14:34 84.4 °F 66.4 °F 30.06 in East 3.0 mph 12.0 mph 55 % 0.00 in
14:39 83.7 °F 66.7 °F 30.06 in East 3.0 mph 12.0 mph 57 % 0.00 in
14:44 84.0 °F 65.7 °F 30.06 in SE 7.0 mph 12.0 mph 54 % 0.00 in
14:49 83.8 °F 66.4 °F 30.06 in SE 3.0 mph 8.0 mph 56 % 0.00 in
14:54 83.5 °F 66.2 °F 30.06 in SE 2.0 mph 9.0 mph 56 % 0.00 in
14:59 84.2 °F 66.2 °F 30.06 in ENE 5.0 mph 9.0 mph 55 % 0.00 in
15:04 84.4 °F 66.4 °F 30.06 in ESE 2.0 mph 9.0 mph 55 % 0.00 in
15:09 84.9 °F 66.9 °F 30.06 in East 3.0 mph 8.0 mph 55 % 0.00 in
15:14 84.6 °F 66.6 °F 30.06 in SSE 4.0 mph 11.0 mph 55 % 0.00 in
15:19 84.4 °F 66.4 °F 30.06 in SSE 2.0 mph 11.0 mph 55 % 0.00 in
15:24 84.0 °F 65.1 °F 30.06 in SE 2.0 mph 11.0 mph 53 % 0.00 in
15:29 84.0 °F 65.7 °F 30.06 in ESE 5.0 mph 10.0 mph 54 % 0.00 in
15:34 83.8 °F 64.9 °F 30.06 in South 1.0 mph 10.0 mph 53 % 0.00 in
15:39 84.0 °F 66.2 °F 30.06 in SSE 5.0 mph 8.0 mph 55 % 0.00 in
15:44 83.8 °F 66.0 °F 30.06 in SE 6.0 mph 8.0 mph 55 % 0.00 in
15:49 83.5 °F 65.7 °F 30.06 in ESE 7.0 mph 8.0 mph 55 % 0.00 in
15:54 83.5 °F 66.2 °F 30.05 in ENE 6.0 mph 8.0 mph 56 % 0.00 in
15:59 83.8 °F 66.0 °F 30.05 in SE 3.0 mph 8.0 mph 55 % 0.00 in
16:04 84.0 °F 65.7 °F 30.05 in SE 6.0 mph 8.0 mph 54 % 0.00 in
16:09 83.7 °F 65.3 °F 30.05 in East 1.0 mph 9.0 mph 54 % 0.00 in
16:14 83.5 °F 65.1 °F 30.05 in SE 6.0 mph 11.0 mph 54 % 0.00 in
16:20 83.5 °F 65.7 °F 30.05 in SE 2.0 mph 11.0 mph 55 % 0.00 in
16:25 83.3 °F 65.5 °F 30.05 in SE 2.0 mph 9.0 mph 55 % 0.00 in
16:30 82.8 °F 64.9 °F 30.05 in NE 7.0 mph 7.0 mph 55 % 0.00 in
16:35 82.2 °F 64.9 °F 30.05 in Calm   8.0 mph 56 % 0.00 in
16:40 82.0 °F 64.8 °F 30.05 in SE 3.0 mph 8.0 mph 56 % 0.00 in
16:45 81.9 °F 64.6 °F 30.05 in SE 2.0 mph 8.0 mph 56 % 0.00 in
16:50 81.9 °F 64.6 °F 30.05 in SE 2.0 mph 7.0 mph 56 % 0.00 in
16:55 81.7 °F 64.9 °F 30.05 in SSE 3.0 mph 7.0 mph 57 % 0.00 in
17:00 81.5 °F 64.8 °F 30.05 in East 1.0 mph 7.0 mph 57 % 0.00 in
17:05 81.3 °F 65.1 °F 30.05 in East 2.0 mph 7.0 mph 58 % 0.00 in
17:10 81.3 °F 65.1 °F 30.05 in SSE 3.0 mph 7.0 mph 58 % 0.00 in
17:15 81.1 °F 64.9 °F 30.05 in SE 2.0 mph 6.0 mph 58 % 0.00 in
17:20 81.0 °F 64.8 °F 30.04 in Calm   6.0 mph 58 % 0.00 in
17:25 81.0 °F 65.3 °F 30.04 in ESE 2.0 mph 6.0 mph 59 % 0.00 in
17:31 80.8 °F 64.6 °F 30.05 in ESE 2.0 mph 6.0 mph 58 % 0.00 in
17:36 80.6 °F 64.4 °F 30.05 in SE 2.0 mph 6.0 mph 58 % 0.00 in
17:41 80.4 °F 64.2 °F 30.05 in SSE 1.0 mph 6.0 mph 58 % 0.00 in
17:46 80.4 °F 64.2 °F 30.05 in ENE 5.0 mph 8.0 mph 58 % 0.00 in
17:51 80.2 °F 64.0 °F 30.05 in SE 6.0 mph 8.0 mph 58 % 0.00 in
17:56 80.2 °F 64.0 °F 30.05 in SE 4.0 mph 8.0 mph 58 % 0.00 in
18:01 80.1 °F 64.4 °F 30.05 in Calm   8.0 mph 59 % 0.00 in
18:06 80.1 °F 63.9 °F 30.05 in SSE 1.0 mph 7.0 mph 58 % 0.00 in
18:11 79.9 °F 64.2 °F 30.05 in ESE 1.0 mph 7.0 mph 59 % 0.00 in
18:16 79.9 °F 64.2 °F 30.06 in ESE 3.0 mph 7.0 mph 59 % 0.00 in
18:21 79.7 °F 64.6 °F 30.06 in East 2.0 mph 7.0 mph 60 % 0.00 in
18:26 79.5 °F 64.9 °F 30.06 in SE 4.0 mph 7.0 mph 61 % 0.00 in
18:31 79.2 °F 65.5 °F 30.06 in ESE 4.0 mph 9.0 mph 63 % 0.00 in
18:36 79.0 °F 65.3 °F 30.06 in East 5.0 mph 9.0 mph 63 % 0.00 in
18:41 78.8 °F 65.7 °F 30.06 in SE 3.0 mph 9.0 mph 64 % 0.00 in
18:46 78.6 °F 65.8 °F 30.06 in East 5.0 mph 8.0 mph 65 % 0.00 in
18:51 78.3 °F 65.5 °F 30.06 in SSE 5.0 mph 8.0 mph 65 % 0.00 in
18:56 78.1 °F 65.8 °F 30.06 in SSE 4.0 mph 8.0 mph 66 % 0.00 in
19:01 77.7 °F 65.5 °F 30.06 in SE 5.0 mph 8.0 mph 66 % 0.00 in
19:06 77.5 °F 65.3 °F 30.07 in SE 3.0 mph 7.0 mph 66 % 0.00 in
19:11 77.4 °F 65.5 °F 30.07 in ESE 2.0 mph 7.0 mph 67 % 0.00 in
19:16 77.2 °F 65.3 °F 30.07 in ESE 1.0 mph 6.0 mph 67 % 0.00 in
19:21 77.0 °F 65.1 °F 30.07 in East 3.0 mph 6.0 mph 67 % 0.00 in
19:26 76.8 °F 65.5 °F 30.07 in ESE 3.0 mph 6.0 mph 68 % 0.00 in
19:31 76.5 °F 65.5 °F 30.07 in ENE 3.0 mph 5.0 mph 69 % 0.00 in
19:37 76.3 °F 65.8 °F 30.07 in ESE 2.0 mph 5.0 mph 70 % 0.00 in
19:42 76.1 °F 65.7 °F 30.07 in SE 4.0 mph 5.0 mph 70 % 0.00 in
19:47 75.9 °F 65.5 °F 30.07 in ESE 3.0 mph 6.0 mph 70 % 0.00 in
19:52 75.7 °F 64.8 °F 30.07 in ESE 2.0 mph 6.0 mph 69 % 0.00 in
19:57 75.4 °F 64.0 °F 30.07 in ESE 2.0 mph 9.0 mph 68 % 0.00 in
20:02 75.4 °F 63.7 °F 30.06 in East 2.0 mph 9.0 mph 67 % 0.00 in
20:06 75.0 °F 63.0 °F 30.06 in Calm   9.0 mph 66 % 0.00 in
20:12 75.0 °F 62.1 °F 30.06 in East 2.0 mph 6.0 mph 64 % 0.00 in
20:17 74.8 °F 62.2 °F 30.06 in Calm   6.0 mph 65 % 0.00 in
20:22 74.7 °F 62.1 °F 30.06 in Calm   6.0 mph 65 % 0.00 in
20:27 74.5 °F 62.4 °F 30.07 in Calm   6.0 mph 66 % 0.00 in
20:32 74.3 °F 62.2 °F 30.07 in NE 1.0 mph 4.0 mph 66 % 0.00 in
20:37 74.3 °F 62.2 °F 30.07 in SE 3.0 mph 4.0 mph 66 % 0.00 in
20:42 74.1 °F 62.1 °F 30.07 in Calm   4.0 mph 66 % 0.00 in
20:47 74.1 °F 62.1 °F 30.08 in Calm   4.0 mph 66 % 0.00 in
20:52 74.1 °F 62.1 °F 30.08 in Calm   4.0 mph 66 % 0.00 in
20:57 73.9 °F 61.9 °F 30.08 in Calm   4.0 mph 66 % 0.00 in
21:02 73.9 °F 61.9 °F 30.09 in Calm   3.0 mph 66 % 0.00 in
21:07 73.8 °F 62.1 °F 30.09 in East 2.0 mph 3.0 mph 67 % 0.00 in
21:12 73.8 °F 62.1 °F 30.09 in SSE 2.0 mph 5.0 mph 67 % 0.00 in
21:17 73.6 °F 61.9 °F 30.09 in Calm   5.0 mph 67 % 0.00 in
21:22 73.6 °F 61.9 °F 30.10 in NE 2.0 mph 5.0 mph 67 % 0.00 in
21:27 73.4 °F 62.2 °F 30.10 in Calm   5.0 mph 68 % 0.00 in
21:32 73.2 °F 62.4 °F 30.09 in Calm   3.0 mph 69 % 0.00 in
21:37 73.0 °F 62.2 °F 30.09 in Calm   2.0 mph 69 % 0.00 in
21:42 72.9 °F 62.4 °F 30.09 in Calm   4.0 mph 70 % 0.00 in
21:47 72.9 °F 62.4 °F 30.09 in ESE 2.0 mph 4.0 mph 70 % 0.00 in
21:52 72.9 °F 62.4 °F 30.09 in Calm   4.0 mph 70 % 0.00 in
21:57 72.7 °F 62.8 °F 30.09 in Calm   4.0 mph 71 % 0.00 in
22:02 72.7 °F 62.8 °F 30.09 in ESE 1.0 mph 4.0 mph 71 % 0.00 in
22:07 72.5 °F 62.6 °F 30.08 in Calm   3.0 mph 71 % 0.00 in
22:12 72.5 °F 63.0 °F 30.08 in Calm   2.0 mph 72 % 0.00 in
22:17 72.3 °F 62.8 °F 30.08 in Calm   2.0 mph 72 % 0.00 in
22:21 72.3 °F 62.8 °F 30.08 in Calm   2.0 mph 72 % 0.00 in
22:26 72.1 °F 62.6 °F 30.08 in Calm   2.0 mph 72 % 0.00 in
22:27 72.1 °F 62.6 °F 30.08 in NE 1.0 mph 2.0 mph 72 % 0.00 in
22:32 72.1 °F 63.0 °F 30.08 in Calm   2.0 mph 73 % 0.00 in
22:37 72.0 °F 62.8 °F 30.08 in Calm   2.0 mph 73 % 0.00 in
22:42 72.0 °F 62.8 °F 30.09 in Calm   2.0 mph 73 % 0.00 in
22:47 72.0 °F 63.1 °F 30.09 in Calm   3.0 mph 74 % 0.00 in
22:52 71.8 °F 63.0 °F 30.08 in Calm   4.0 mph 74 % 0.00 in
22:57 71.6 °F 63.0 °F 30.08 in Calm   4.0 mph 74 % 0.00 in
23:02 71.4 °F 63.1 °F 30.09 in ESE 1.0 mph 4.0 mph 75 % 0.00 in
23:07 71.4 °F 63.1 °F 30.09 in Calm   4.0 mph 75 % 0.00 in
23:12 71.4 °F 63.1 °F 30.09 in East 1.0 mph 4.0 mph 75 % 0.00 in
23:17 71.4 °F 63.1 °F 30.09 in ESE 1.0 mph 4.0 mph 75 % 0.00 in
23:22 71.4 °F 63.1 °F 30.09 in Calm   4.0 mph 75 % 0.00 in
23:27 71.4 °F 63.1 °F 30.09 in Calm   5.0 mph 75 % 0.00 in
23:32 71.4 °F 63.1 °F 30.10 in Calm   5.0 mph 75 % 0.00 in
23:38 71.4 °F 63.1 °F 30.10 in ENE 1.0 mph 5.0 mph 75 % 0.00 in
23:42 71.4 °F 63.1 °F 30.10 in East 2.0 mph 5.0 mph 75 % 0.00 in
23:47 71.4 °F 63.1 °F 30.10 in North 2.0 mph 5.0 mph 75 % 0.00 in
23:52 71.2 °F 63.0 °F 30.09 in Calm   6.0 mph 75 % 0.00 in
23:57 71.2 °F 63.0 °F 30.09 in Calm   6.0 mph 75 % 0.00 in
Spring, Texas: Villages of Bridgestone
Compliments of Weather Underground - 2.75 mb

Script developed by  Jim McMurry - jmcmurry@mwt.net Adapted for the template by  Wim van der Kuil - Leuven-Template.eu

You find our weather info also at:

UK Metoffice

WeatherCloud

Weather Underground

Mid-South Weather Network

AWEKAS

Citizen Weather Observer Program (CWOP)

HAMweather, WeatherForYou, PWS Weather

Equipment we use:

Weather-station
Davis Vantage Vue

Weather-program
Meteohub

Weather-server
Debian 7.9 x86 (Guest)

Provider
DreamHost

Davis Vantage Vue

Meteohub

Debian 7.9 x86 (Guest)

DreamHost